Time;durP1;ratioP1;P1;durP2;ratioP2;P2;SDS_P1;SDS_P2;PMS_P1;PMS_P2;Temp;Humidity;BMP_temperature;BMP_pressure;BME280_temperature;BME280_humidity;BME280_pressure;Samples;Min_cycle;Max_cycle;Signal;HPM_P1;HPM_P2
2023/11/20 00:02:09;;;;;;;1.90;1.67;;;10.70;99.90;;;;;;5084765;28;21043;-84
2023/11/20 00:04:37;;;;;;;1.40;1.30;;;10.80;99.90;;;;;;5084675;28;20444;-85
2023/11/20 00:07:05;;;;;;;8.03;1.17;;;10.70;99.90;;;;;;5081251;28;20436;-85
2023/11/20 00:09:32;;;;;;;2.97;1.17;;;10.80;99.90;;;;;;5082068;28;20991;-84
2023/11/20 00:11:59;;;;;;;0.67;0.67;;;10.80;99.90;;;;;;5080030;28;20811;-86
2023/11/20 00:14:26;;;;;;;1.00;0.90;;;10.80;99.90;;;;;;5077165;28;20939;-84
2023/11/20 00:16:53;;;;;;;3.60;1.17;;;10.80;99.90;;;;;;5077170;28;20429;-85
2023/11/20 00:19:20;;;;;;;1.50;0.90;;;10.90;99.90;;;;;;5076488;28;20482;-85
2023/11/20 00:21:48;;;;;;;6.67;1.30;;;10.90;99.90;;;;;;5077316;28;20443;-83
2023/11/20 00:24:15;;;;;;;1.00;1.00;;;10.90;99.90;;;;;;5077448;28;20480;-86
2023/11/20 00:26:42;;;;;;;0.83;0.83;;;10.90;99.90;;;;;;5077277;28;20452;-85
2023/11/20 00:29:09;;;;;;;0.53;0.53;;;11.00;99.90;;;;;;5077328;28;20463;-86
2023/11/20 00:31:36;;;;;;;1.13;0.57;;;10.90;99.90;;;;;;5077435;28;20880;-84
2023/11/20 00:34:03;;;;;;;5.90;1.37;;;11.00;99.90;;;;;;5076716;28;20443;-84
2023/11/20 00:36:30;;;;;;;2.50;0.90;;;11.00;99.90;;;;;;5076897;28;20447;-86
2023/11/20 00:38:58;;;;;;;0.60;0.47;;;11.00;99.90;;;;;;5076325;28;20532;-85
2023/11/20 00:41:25;;;;;;;5.00;2.17;;;11.00;99.90;;;;;;5076679;28;20429;-84
2023/11/20 00:43:52;;;;;;;3.40;0.90;;;11.00;99.90;;;;;;5076804;28;20456;-86
2023/11/20 00:46:18;;;;;;;1.13;1.13;;;11.00;99.90;;;;;;5076573;28;20439;-85
2023/11/20 00:48:45;;;;;;;6.10;1.57;;;11.10;99.90;;;;;;5076556;28;20465;-84
2023/11/20 00:51:13;;;;;;;2.20;1.00;;;11.10;99.90;;;;;;5076727;28;20439;-85
2023/11/20 00:53:40;;;;;;;3.40;3.10;;;11.10;99.90;;;;;;5076855;28;20445;-84
2023/11/20 00:56:09;;;;;;;0.50;0.40;;;11.10;99.90;;;;;;5067587;28;20444;-85
2023/11/20 00:58:35;;;;;;;1.63;1.27;;;11.10;99.90;;;;;;5077103;28;20555;-85
2023/11/20 01:01:02;;;;;;;5.47;1.30;;;11.10;99.90;;;;;;5076094;28;20476;-84
2023/11/20 01:03:29;;;;;;;3.10;1.30;;;11.20;99.90;;;;;;5076495;28;21032;-85
2023/11/20 01:05:56;;;;;;;3.07;0.80;;;11.10;99.90;;;;;;5075776;28;20441;-85
2023/11/20 01:08:22;;;;;;;1.57;0.70;;;11.10;99.90;;;;;;5076448;28;20433;-85
2023/11/20 01:10:49;;;;;;;1.37;1.37;;;11.20;99.90;;;;;;5075974;28;20507;-83
2023/11/20 01:13:17;;;;;;;0.83;0.80;;;11.20;99.90;;;;;;5076245;28;20429;-85
2023/11/20 01:15:45;;;;;;;1.53;0.83;;;11.10;99.90;;;;;;5075800;28;20444;-85
2023/11/20 01:18:12;;;;;;;1.27;0.90;;;11.10;99.90;;;;;;5079121;28;20479;-82
2023/11/20 01:20:39;;;;;;;3.03;1.90;;;11.00;99.90;;;;;;5076388;28;20852;-84
2023/11/20 01:23:05;;;;;;;1.03;0.90;;;11.00;99.90;;;;;;5075467;28;20447;-85
2023/11/20 01:25:32;;;;;;;1.97;1.47;;;11.00;99.90;;;;;;5075022;28;20809;-84
2023/11/20 01:27:59;;;;;;;1.60;1.50;;;11.00;99.90;;;;;;5074702;28;20440;-83
2023/11/20 01:30:28;;;;;;;1.23;1.23;;;11.00;99.90;;;;;;5074554;28;20459;-83
2023/11/20 01:32:55;;;;;;;1.53;0.83;;;11.00;99.90;;;;;;5075095;28;20440;-83
2023/11/20 01:35:21;;;;;;;1.23;0.60;;;11.00;99.90;;;;;;5074852;28;20479;-85
2023/11/20 01:37:48;;;;;;;1.73;1.23;;;11.00;99.90;;;;;;5075027;28;20441;-83
2023/11/20 01:40:16;;;;;;;2.53;0.83;;;11.00;99.90;;;;;;5077714;28;20483;-82
2023/11/20 01:42:44;;;;;;;0.47;0.37;;;11.00;99.90;;;;;;5080854;28;20433;-83
2023/11/20 01:45:11;;;;;;;2.83;0.63;;;11.10;99.90;;;;;;5076616;28;20436;-82
2023/11/20 01:47:39;;;;;;;0.53;0.53;;;11.00;99.90;;;;;;5075095;28;20432;-81
2023/11/20 01:50:10;;;;;;;6.50;1.60;;;11.10;99.90;;;;;;5074387;28;20915;-83
2023/11/20 01:52:40;;;;;;;0.47;0.30;;;11.10;99.90;;;;;;5087018;28;20433;-84
2023/11/20 01:55:10;;;;;;;1.37;1.07;;;11.10;99.90;;;;;;5075496;28;20439;-83
2023/11/20 01:57:39;;;;;;;0.70;0.70;;;11.10;99.90;;;;;;5075578;28;20778;-83
2023/11/20 02:00:09;;;;;;;0.63;0.63;;;11.10;99.90;;;;;;5075504;28;20856;-84
2023/11/20 02:02:37;;;;;;;0.47;0.40;;;11.10;99.90;;;;;;5075239;28;20444;-84
2023/11/20 02:05:06;;;;;;;0.50;0.40;;;11.10;99.90;;;;;;5074943;28;20479;-84
2023/11/20 02:07:33;;;;;;;4.43;1.23;;;11.10;99.90;;;;;;5076173;28;20892;-84
2023/11/20 02:10:00;;;;;;;0.50;0.40;;;11.10;99.90;;;;;;5074673;28;20463;-85
2023/11/20 02:12:27;;;;;;;0.97;0.80;;;11.10;99.90;;;;;;5075780;28;20834;-84
2023/11/20 02:14:54;;;;;;;0.60;0.50;;;11.10;99.90;;;;;;5075265;28;20432;-84
2023/11/20 02:17:21;;;;;;;1.23;1.13;;;11.10;99.90;;;;;;5075432;28;20928;-85
2023/11/20 02:19:49;;;;;;;4.40;0.57;;;11.10;99.90;;;;;;5075283;28;20496;-83
2023/11/20 02:22:17;;;;;;;1.57;1.47;;;11.20;99.90;;;;;;5074903;28;20441;-85
2023/11/20 02:24:44;;;;;;;1.10;0.60;;;11.10;99.90;;;;;;5078001;28;20463;-85
2023/11/20 02:27:27;;;;;;;2.43;2.33;;;11.20;99.90;;;;;;5079291;28;20428;-83
2023/11/20 02:29:55;;;;;;;1.67;0.67;;;11.20;99.90;;;;;;5079367;28;20535;-83
2023/11/20 02:32:22;;;;;;;0.77;0.60;;;11.20;99.90;;;;;;5079065;28;20433;-85
2023/11/20 02:34:50;;;;;;;1.13;0.63;;;11.10;99.90;;;;;;5079295;28;20438;-84
2023/11/20 02:37:17;;;;;;;0.50;0.40;;;11.10;99.90;;;;;;5079242;28;20440;-83
2023/11/20 02:39:48;;;;;;;5.07;1.00;;;11.10;99.90;;;;;;5078906;28;20568;-84
2023/11/20 02:42:15;;;;;;;0.67;0.57;;;11.10;99.90;;;;;;5078683;28;20440;-83
2023/11/20 02:44:43;;;;;;;1.27;1.17;;;11.10;99.90;;;;;;5077854;28;20451;-81
2023/11/20 02:47:11;;;;;;;2.50;0.80;;;11.10;99.90;;;;;;5077843;28;20812;-84
2023/11/20 02:49:38;;;;;;;0.40;0.40;;;11.10;99.90;;;;;;5077798;28;20471;-84
2023/11/20 02:52:06;;;;;;;0.40;0.40;;;11.10;99.90;;;;;;5078111;28;20438;-84
2023/11/20 02:54:35;;;;;;;1.57;1.57;;;11.10;99.90;;;;;;5076909;28;20935;-82
2023/11/20 02:57:02;;;;;;;1.67;1.17;;;11.10;99.90;;;;;;5076905;28;20444;-82
2023/11/20 02:59:29;;;;;;;0.50;0.50;;;11.10;99.90;;;;;;5077020;28;20471;-81
2023/11/20 03:01:56;;;;;;;2.60;2.40;;;11.10;99.90;;;;;;5076158;28;20598;-82
2023/11/20 03:04:24;;;;;;;0.77;0.50;;;11.10;99.90;;;;;;5076329;28;20428;-83
2023/11/20 03:06:51;;;;;;;2.60;1.10;;;11.10;99.90;;;;;;5076001;28;20440;-83
2023/11/20 03:09:18;;;;;;;0.60;0.53;;;11.00;99.90;;;;;;5076464;28;20456;-81
2023/11/20 03:11:45;;;;;;;4.73;1.70;;;11.00;99.90;;;;;;5076819;28;20447;-83
2023/11/20 03:14:12;;;;;;;6.90;1.37;;;11.00;99.90;;;;;;5075999;28;20483;-81
2023/11/20 03:16:39;;;;;;;2.43;1.27;;;10.90;99.90;;;;;;5075896;28;20439;-82
2023/11/20 03:19:06;;;;;;;0.40;0.40;;;10.90;99.90;;;;;;5075949;28;20461;-83
2023/11/20 03:21:36;;;;;;;0.60;0.40;;;10.80;99.90;;;;;;5076713;28;20472;-83
2023/11/20 03:24:04;;;;;;;9.87;2.87;;;10.80;99.90;;;;;;5076475;28;20437;-86
2023/11/20 03:26:30;;;;;;;0.40;0.30;;;10.80;99.90;;;;;;5060003;28;20432;-84
2023/11/20 03:28:57;;;;;;;3.00;1.33;;;10.70;99.90;;;;;;5076087;28;20456;-82
2023/11/20 03:31:24;;;;;;;0.40;0.40;;;10.70;99.90;;;;;;5076119;28;20443;-82
2023/11/20 03:33:51;;;;;;;0.50;0.50;;;10.70;99.90;;;;;;5075964;28;20433;-84
2023/11/20 03:36:23;;;;;;;0.40;0.40;;;10.60;99.90;;;;;;5075249;28;20447;-83
2023/11/20 03:38:52;;;;;;;0.40;0.40;;;10.60;99.90;;;;;;5076481;28;20468;-82
2023/11/20 03:41:19;;;;;;;0.60;0.60;;;10.60;99.90;;;;;;5076153;28;20563;-82
2023/11/20 03:43:45;;;;;;;0.40;0.40;;;10.50;99.90;;;;;;5076164;28;20190;-84
2023/11/20 03:46:12;;;;;;;2.78;0.80;;;10.60;99.90;;;;;;5076023;28;20443;-83
2023/11/20 03:48:39;;;;;;;1.90;1.83;;;10.60;99.90;;;;;;5075572;28;20228;-85
2023/11/20 03:51:06;;;;;;;0.40;0.40;;;10.60;99.90;;;;;;5075415;28;20437;-83
2023/11/20 03:53:33;;;;;;;3.20;0.90;;;10.60;99.90;;;;;;5075386;28;20441;-80
2023/11/20 03:56:01;;;;;;;0.60;0.60;;;10.50;99.90;;;;;;5076024;28;20439;-83
2023/11/20 03:58:28;;;;;;;0.40;0.40;;;10.60;99.90;;;;;;5075868;28;20436;-83
2023/11/20 04:00:54;;;;;;;0.47;0.40;;;10.60;99.90;;;;;;5074072;28;20476;-83
2023/11/20 04:03:21;;;;;;;0.40;0.30;;;10.60;99.90;;;;;;5073800;28;20439;-82
2023/11/20 04:05:48;;;;;;;0.40;0.40;;;10.60;99.90;;;;;;5073720;28;20433;-82
2023/11/20 04:08:15;;;;;;;0.40;0.33;;;10.60;99.90;;;;;;5073902;28;20448;-81
2023/11/20 04:10:41;;;;;;;8.90;2.00;;;10.60;99.90;;;;;;5073574;28;20465;-83
2023/11/20 04:13:10;;;;;;;1.40;1.30;;;10.70;99.90;;;;;;5074188;28;20433;-81
2023/11/20 04:15:37;;;;;;;0.50;0.47;;;10.70;99.90;;;;;;5073857;28;20445;-82
2023/11/20 04:18:04;;;;;;;0.40;0.40;;;10.70;99.90;;;;;;5073584;28;20832;-82
2023/11/20 04:20:31;;;;;;;1.57;1.47;;;10.60;99.90;;;;;;5073576;28;20484;-80
2023/11/20 04:22:57;;;;;;;8.60;1.27;;;10.60;99.90;;;;;;5055163;28;20454;-80
2023/11/20 04:25:24;;;;;;;1.17;0.77;;;10.60;99.90;;;;;;5058576;28;20442;-81
2023/11/20 04:27:52;;;;;;;1.63;0.57;;;10.60;99.90;;;;;;5075522;28;20436;-80
2023/11/20 04:30:22;;;;;;;1.43;1.33;;;10.60;99.90;;;;;;5075126;28;20452;-80
2023/11/20 04:32:48;;;;;;;7.03;1.63;;;10.60;99.90;;;;;;5075789;28;20498;-81
2023/11/20 04:35:15;;;;;;;0.80;0.60;;;10.60;99.90;;;;;;5076142;28;20445;-80
2023/11/20 04:37:42;;;;;;;0.93;0.93;;;10.60;99.90;;;;;;5076437;28;20536;-81
2023/11/20 04:40:10;;;;;;;2.10;1.20;;;10.60;99.90;;;;;;5076155;28;20479;-81
2023/11/20 04:42:37;;;;;;;0.70;0.70;;;10.60;99.90;;;;;;5077169;28;20437;-80
2023/11/20 04:45:04;;;;;;;2.83;2.70;;;10.60;99.90;;;;;;5076153;28;20941;-80
2023/11/20 04:47:36;;;;;;;0.50;0.50;;;10.70;99.90;;;;;;5077647;28;20822;-81
2023/11/20 04:50:03;;;;;;;0.40;0.40;;;10.60;99.90;;;;;;5076784;28;20472;-81
2023/11/20 04:52:30;;;;;;;0.40;0.40;;;10.60;99.90;;;;;;5075842;28;20448;-80
2023/11/20 04:54:57;;;;;;;1.43;0.77;;;10.60;99.90;;;;;;5074708;28;20527;-80
2023/11/20 04:57:24;;;;;;;0.70;0.60;;;10.60;99.90;;;;;;5075078;28;20507;-81
2023/11/20 04:59:51;;;;;;;0.60;0.60;;;10.70;99.90;;;;;;5076818;28;20456;-82
2023/11/20 05:02:18;;;;;;;0.60;0.60;;;10.70;99.90;;;;;;5074531;28;20522;-81
2023/11/20 05:04:46;;;;;;;0.80;0.50;;;10.60;99.90;;;;;;5066796;28;20433;-80
2023/11/20 05:07:13;;;;;;;0.40;0.40;;;10.60;99.90;;;;;;5075271;28;20433;-79
2023/11/20 05:09:39;;;;;;;1.43;0.97;;;10.70;99.90;;;;;;5077349;28;20466;-81
2023/11/20 05:12:07;;;;;;;0.50;0.40;;;10.70;99.90;;;;;;5076776;28;20433;-80
2023/11/20 05:14:34;;;;;;;2.20;0.77;;;10.70;99.90;;;;;;5077492;28;20440;-80
2023/11/20 05:17:01;;;;;;;0.77;0.60;;;10.70;99.90;;;;;;5075455;28;20447;-80
2023/11/20 05:19:28;;;;;;;2.30;1.23;;;10.70;99.90;;;;;;5075372;28;20456;-79
2023/11/20 05:21:56;;;;;;;0.40;0.40;;;10.70;99.90;;;;;;5076056;28;20476;-80
2023/11/20 05:24:24;;;;;;;0.40;0.40;;;10.70;99.90;;;;;;5077710;28;20199;-80
2023/11/20 05:26:52;;;;;;;0.70;0.70;;;10.70;99.90;;;;;;5079292;28;20433;-80
2023/11/20 05:29:19;;;;;;;4.20;0.73;;;10.70;99.90;;;;;;5073946;28;20473;-81
2023/11/20 05:31:45;;;;;;;1.10;0.67;;;10.70;99.90;;;;;;5076733;28;20436;-81
2023/11/20 05:34:14;;;;;;;0.67;0.67;;;10.70;99.90;;;;;;5077693;28;20479;-79
2023/11/20 05:36:40;;;;;;;1.07;0.50;;;10.70;99.90;;;;;;5077158;28;20468;-79
2023/11/20 05:39:09;;;;;;;3.13;0.60;;;10.70;99.90;;;;;;5077338;28;20456;-79
2023/11/20 05:41:36;;;;;;;2.53;0.80;;;10.70;99.90;;;;;;5062428;28;20477;-80
2023/11/20 05:44:03;;;;;;;0.80;0.80;;;10.70;99.90;;;;;;5065634;28;20441;-78
2023/11/20 05:46:30;;;;;;;9.30;2.20;;;10.70;99.90;;;;;;5075965;28;20895;-80
2023/11/20 05:48:56;;;;;;;0.40;0.30;;;10.70;99.90;;;;;;5072043;28;20482;-81
2023/11/20 05:51:23;;;;;;;0.67;0.67;;;10.70;99.90;;;;;;5071265;28;20804;-81
2023/11/20 05:53:50;;;;;;;0.90;0.80;;;10.70;99.90;;;;;;5065834;28;20433;-82
2023/11/20 05:56:18;;;;;;;6.60;1.50;;;10.70;99.90;;;;;;5072331;28;20447;-82
2023/11/20 05:58:45;;;;;;;1.63;0.97;;;10.70;99.90;;;;;;5071411;28;20933;-83
2023/11/20 06:01:13;;;;;;;1.07;0.80;;;10.60;99.90;;;;;;5071350;28;20566;-82
2023/11/20 06:03:39;;;;;;;0.40;0.40;;;10.60;99.90;;;;;;5071209;28;20439;-81
2023/11/20 06:06:06;;;;;;;0.67;0.63;;;10.50;99.90;;;;;;5072016;28;20433;-82
2023/11/20 06:08:34;;;;;;;0.60;0.60;;;10.50;99.90;;;;;;5072129;28;20440;-82
2023/11/20 06:11:01;;;;;;;5.17;1.03;;;10.40;99.90;;;;;;5072387;28;20527;-83
2023/11/20 06:13:29;;;;;;;0.40;0.40;;;10.40;99.90;;;;;;5073807;28;20436;-83
2023/11/20 06:15:56;;;;;;;3.00;2.03;;;10.40;99.90;;;;;;5072528;28;20898;-82
2023/11/20 06:18:22;;;;;;;0.87;0.87;;;10.40;99.90;;;;;;5072081;28;20484;-83
2023/11/20 06:20:49;;;;;;;3.33;1.43;;;10.30;99.90;;;;;;5073362;28;20486;-83
2023/11/20 06:23:16;;;;;;;11.82;3.05;;;10.30;99.90;;;;;;5073026;28;20920;-83
2023/11/20 06:25:43;;;;;;;1.30;1.20;;;10.30;99.90;;;;;;5072576;28;20309;-82
2023/11/20 06:28:10;;;;;;;0.40;0.40;;;10.30;99.90;;;;;;5073842;28;20441;-83
2023/11/20 06:30:38;;;;;;;0.40;0.30;;;10.30;99.90;;;;;;5072360;28;20457;-83
2023/11/20 06:33:04;;;;;;;0.60;0.60;;;10.30;99.90;;;;;;5073196;28;20433;-83
2023/11/20 06:35:31;;;;;;;0.60;0.60;;;10.30;99.90;;;;;;5072800;28;20669;-82
2023/11/20 06:37:58;;;;;;;14.43;2.20;;;10.30;99.90;;;;;;5072751;28;20198;-83
2023/11/20 06:40:25;;;;;;;1.57;1.50;;;10.30;99.90;;;;;;5072876;28;20457;-82
2023/11/20 06:42:51;;;;;;;0.98;0.98;;;10.30;99.90;;;;;;5072664;28;20560;-83
2023/11/20 06:45:28;;;;;;;6.75;3.40;;;10.30;99.90;;;;;;5073595;28;20209;-82
2023/11/20 06:47:57;;;;;;;0.88;0.88;;;10.30;99.90;;;;;;5060536;28;20217;-81
2023/11/20 06:50:25;;;;;;;0.40;0.40;;;10.40;99.90;;;;;;5075422;28;20249;-82
2023/11/20 06:52:52;;;;;;;2.07;1.37;;;10.40;99.90;;;;;;5080018;28;20198;-81
2023/11/20 06:55:19;;;;;;;0.90;0.60;;;10.40;99.90;;;;;;5078603;28;20445;-82
2023/11/20 06:57:46;;;;;;;4.70;2.60;;;10.40;99.90;;;;;;5078786;28;20788;-81
2023/11/20 07:00:13;;;;;;;3.33;1.83;;;10.40;99.90;;;;;;5078551;28;20456;-82
2023/11/20 07:02:42;;;;;;;1.23;1.07;;;10.40;99.90;;;;;;5076738;28;20563;-82
2023/11/20 07:05:14;;;;;;;2.73;1.83;;;10.40;99.90;;;;;;5074089;28;21000;-81
2023/11/20 07:07:50;;;;;;;0.50;0.50;;;10.40;99.90;;;;;;5073950;28;20512;-80
2023/11/20 07:10:22;;;;;;;0.82;0.82;;;10.30;99.90;;;;;;5075528;28;20211;-82
2023/11/20 07:12:49;;;;;;;10.27;1.50;;;10.40;99.90;;;;;;5069430;28;20273;-81
2023/11/20 07:15:15;;;;;;;0.40;0.40;;;10.30;99.90;;;;;;5079637;28;20436;-82
2023/11/20 07:17:42;;;;;;;0.53;0.53;;;10.40;99.90;;;;;;5083544;28;20577;-81
2023/11/20 07:20:12;;;;;;;2.72;2.38;;;10.30;99.90;;;;;;5081678;28;20457;-83
2023/11/20 07:22:38;;;;;;;1.30;0.80;;;10.40;99.90;;;;;;5092290;28;20274;-81
2023/11/20 07:25:06;;;;;;;3.35;0.90;;;10.30;99.90;;;;;;5094239;28;20191;-81
2023/11/20 07:27:33;;;;;;;0.90;0.82;;;10.30;99.90;;;;;;5080183;28;20195;-81
2023/11/20 07:30:00;;;;;;;7.83;0.90;;;10.30;99.90;;;;;;5078269;28;20284;-81
2023/11/20 07:32:27;;;;;;;1.10;1.10;;;10.40;99.90;;;;;;5081559;28;20441;-82
2023/11/20 07:34:53;;;;;;;1.77;0.90;;;10.40;99.90;;;;;;5080330;28;20487;-81
2023/11/20 07:37:22;;;;;;;0.90;0.90;;;10.40;99.90;;;;;;5077628;28;20528;-80
2023/11/20 07:39:49;;;;;;;1.17;1.07;;;10.40;99.90;;;;;;5077283;28;20278;-81
2023/11/20 07:42:15;;;;;;;0.80;0.60;;;10.40;99.90;;;;;;5081713;28;20468;-81
2023/11/20 07:44:42;;;;;;;1.53;1.43;;;10.40;99.90;;;;;;5076750;28;20231;-79
2023/11/20 07:47:10;;;;;;;0.93;0.90;;;10.40;99.90;;;;;;5077343;28;20873;-81
2023/11/20 07:49:38;;;;;;;9.18;1.02;;;10.40;99.90;;;;;;5080840;28;20222;-80
2023/11/20 07:52:06;;;;;;;0.50;0.47;;;10.40;99.90;;;;;;5090968;28;20600;-81
2023/11/20 07:54:34;;;;;;;0.85;0.85;;;10.30;99.90;;;;;;5089971;28;20201;-81
2023/11/20 07:57:01;;;;;;;4.13;1.60;;;10.40;99.90;;;;;;5084143;28;20277;-82
2023/11/20 07:59:27;;;;;;;18.90;2.37;;;10.50;99.90;;;;;;5079328;28;20539;-81
2023/11/20 08:01:54;;;;;;;8.63;0.93;;;10.50;99.90;;;;;;5060702;28;20473;-82
2023/11/20 08:04:21;;;;;;;5.63;2.37;;;10.50;99.90;;;;;;5069224;28;20484;-81
2023/11/20 08:06:48;;;;;;;0.40;0.40;;;10.50;99.90;;;;;;5076877;28;20453;-81
2023/11/20 08:09:15;;;;;;;3.80;1.60;;;10.40;99.90;;;;;;5095997;22;20218;-80
2023/11/20 08:11:44;;;;;;;1.13;1.00;;;10.40;99.90;;;;;;5076542;28;20437;-77
2023/11/20 08:14:14;;;;;;;0.50;0.40;;;10.30;99.90;;;;;;5079081;28;20866;-82
2023/11/20 08:16:41;;;;;;;4.67;1.57;;;10.30;99.90;;;;;;5079622;28;20523;-80
2023/11/20 08:19:08;;;;;;;5.93;2.00;;;10.40;99.90;;;;;;5079977;28;20447;-80
2023/11/20 08:21:34;;;;;;;3.07;1.43;;;10.80;99.90;;;;;;5079208;28;20547;-79
2023/11/20 08:24:01;;;;;;;3.13;1.53;;;11.20;99.90;;;;;;5080934;28;20437;-81
2023/11/20 08:26:28;;;;;;;0.80;0.80;;;11.60;99.90;;;;;;5080602;28;20433;-81
2023/11/20 08:28:56;;;;;;;3.13;1.80;;;11.80;99.90;;;;;;5079420;28;20453;-80
2023/11/20 08:31:24;;;;;;;3.13;1.93;;;11.90;99.90;;;;;;5079927;28;20464;-80
2023/11/20 08:33:51;;;;;;;5.03;2.40;;;11.90;99.90;;;;;;5080119;28;20693;-80
2023/11/20 08:36:18;;;;;;;1.00;0.90;;;12.10;99.90;;;;;;5079410;28;21015;-79
2023/11/20 08:38:45;;;;;;;3.60;0.93;;;12.30;99.90;;;;;;5079005;28;20547;-80
2023/11/20 08:41:12;;;;;;;6.30;2.20;;;12.20;99.90;;;;;;5078790;28;20444;-80
2023/11/20 08:43:39;;;;;;;2.90;0.80;;;11.80;99.90;;;;;;5079640;28;20445;-80
2023/11/20 08:46:09;;;;;;;0.73;0.60;;;11.60;99.90;;;;;;5079483;28;20436;-80
2023/11/20 08:48:36;;;;;;;0.90;0.70;;;11.70;99.90;;;;;;5078835;28;20453;-77
2023/11/20 08:51:02;;;;;;;0.53;0.50;;;12.00;99.90;;;;;;5079079;28;20432;-80
2023/11/20 08:53:29;;;;;;;8.83;1.37;;;12.30;99.90;;;;;;5079048;28;20443;-80
2023/11/20 08:55:57;;;;;;;4.97;2.40;;;12.40;99.90;;;;;;5078313;28;20444;-80
2023/11/20 08:58:24;;;;;;;1.87;1.77;;;11.90;99.90;;;;;;5078863;28;21066;-80
2023/11/20 09:00:51;;;;;;;1.37;1.17;;;11.60;99.90;;;;;;5077180;28;20845;-80
2023/11/20 09:03:19;;;;;;;2.80;1.13;;;11.30;99.90;;;;;;5077610;28;20816;-81
2023/11/20 09:05:46;;;;;;;0.50;0.50;;;11.20;99.90;;;;;;5077841;28;20507;-77
2023/11/20 09:08:12;;;;;;;3.70;1.27;;;11.10;99.90;;;;;;5078127;28;20469;-80
2023/11/20 09:10:39;;;;;;;3.67;2.43;;;11.10;99.90;;;;;;5078887;28;20811;-80
2023/11/20 09:13:06;;;;;;;11.23;1.03;;;11.00;99.90;;;;;;5079053;28;20437;-80
2023/11/20 09:15:33;;;;;;;2.97;1.37;;;11.10;99.90;;;;;;5079223;28;20440;-80
2023/11/20 09:18:00;;;;;;;3.03;2.20;;;11.40;99.90;;;;;;5077898;28;20456;-80
2023/11/20 09:20:29;;;;;;;1.43;1.33;;;11.80;99.90;;;;;;5077486;28;20476;-79
2023/11/20 09:22:55;;;;;;;1.73;1.63;;;11.90;99.90;;;;;;5078473;28;20483;-81
2023/11/20 09:25:22;;;;;;;0.50;0.40;;;11.90;99.90;;;;;;5078695;28;20468;-81
2023/11/20 09:27:49;;;;;;;0.70;0.50;;;11.90;99.90;;;;;;5077579;28;20523;-81
2023/11/20 09:30:16;;;;;;;2.10;1.13;;;11.70;99.90;;;;;;5077386;28;20524;-80
2023/11/20 09:32:44;;;;;;;0.60;0.60;;;11.60;99.90;;;;;;5077133;28;20497;-77
2023/11/20 09:35:11;;;;;;;1.07;0.60;;;11.50;99.90;;;;;;5077224;28;20524;-80
2023/11/20 09:37:39;;;;;;;2.87;1.43;;;11.40;99.90;;;;;;5077419;28;20452;-79
2023/11/20 09:40:08;;;;;;;0.50;0.40;;;11.20;99.90;;;;;;5077893;28;20448;-80
2023/11/20 09:42:36;;;;;;;0.50;0.50;;;11.30;99.90;;;;;;5077266;28;20469;-81
2023/11/20 09:45:07;;;;;;;0.80;0.80;;;11.40;99.90;;;;;;5077783;28;20511;-81
2023/11/20 09:47:36;;;;;;;1.87;1.27;;;11.40;99.90;;;;;;5077832;28;20924;-78
2023/11/20 09:50:04;;;;;;;5.13;1.07;;;11.30;99.90;;;;;;5077120;28;20441;-81
2023/11/20 09:52:34;;;;;;;0.90;0.87;;;11.20;99.90;;;;;;5077937;28;20515;-80
2023/11/20 09:55:03;;;;;;;2.83;1.70;;;11.20;99.90;;;;;;5078095;28;20795;-81
2023/11/20 09:57:30;;;;;;;2.47;1.40;;;11.40;99.90;;;;;;5078429;28;20440;-80
2023/11/20 09:59:57;;;;;;;0.50;0.40;;;11.50;99.90;;;;;;5077714;28;20465;-80
2023/11/20 10:02:28;;;;;;;0.50;0.40;;;11.60;99.90;;;;;;5077351;28;20465;-80
2023/11/20 10:04:55;;;;;;;0.90;0.70;;;11.40;99.90;;;;;;5077989;28;20502;-81
2023/11/20 10:07:25;;;;;;;4.57;0.90;;;11.40;99.90;;;;;;5078485;28;20463;-81
2023/11/20 10:09:53;;;;;;;1.43;0.90;;;11.40;99.90;;;;;;5077644;28;20476;-80
2023/11/20 10:12:22;;;;;;;4.33;3.93;;;11.40;99.90;;;;;;5077665;28;20425;-80
2023/11/20 10:14:49;;;;;;;0.60;0.60;;;11.40;99.90;;;;;;5077303;28;20438;-80
2023/11/20 10:17:19;;;;;;;2.67;1.53;;;11.50;99.90;;;;;;5078172;28;20475;-79
2023/11/20 10:19:46;;;;;;;1.63;1.47;;;11.40;99.90;;;;;;5077838;28;20484;-80
2023/11/20 10:22:14;;;;;;;1.00;1.00;;;11.40;99.90;;;;;;5079829;28;20472;-80
2023/11/20 10:24:43;;;;;;;1.43;1.33;;;11.60;99.90;;;;;;5080056;28;20448;-81
2023/11/20 10:27:11;;;;;;;1.43;0.80;;;11.80;99.90;;;;;;5072758;28;20519;-80
2023/11/20 10:29:39;;;;;;;1.63;1.00;;;11.80;99.90;;;;;;5081119;28;20497;-77
2023/11/20 10:32:07;;;;;;;1.50;1.17;;;11.90;99.90;;;;;;5079968;28;20425;-80
2023/11/20 10:34:33;;;;;;;1.13;0.90;;;11.90;99.90;;;;;;5079831;28;20789;-81
2023/11/20 10:37:05;;;;;;;2.00;1.23;;;11.90;99.90;;;;;;5079220;28;20611;-81
2023/11/20 10:39:33;;;;;;;1.63;0.67;;;11.70;99.90;;;;;;5079917;28;20467;-80
2023/11/20 10:42:00;;;;;;;0.50;0.40;;;11.60;99.90;;;;;;5080252;28;20444;-80
2023/11/20 10:44:29;;;;;;;0.50;0.40;;;11.50;99.90;;;;;;5080825;28;20436;-81
2023/11/20 10:47:00;;;;;;;1.27;1.17;;;11.50;99.90;;;;;;5083747;28;20445;-80
2023/11/20 10:49:32;;;;;;;0.60;0.50;;;11.40;99.90;;;;;;5084144;28;20880;-80
2023/11/20 10:52:04;;;;;;;1.30;1.30;;;11.40;99.90;;;;;;5082044;28;20868;-79
2023/11/20 10:54:44;;;;;;;0.70;0.50;;;11.40;99.90;;;;;;5083921;28;20436;-79
2023/11/20 10:57:12;;;;;;;1.83;0.90;;;11.30;99.90;;;;;;5083949;28;20428;-81
2023/11/20 10:59:40;;;;;;;0.80;0.70;;;11.20;99.90;;;;;;5084503;28;20483;-79
2023/11/20 11:02:19;;;;;;;1.40;1.30;;;11.20;99.90;;;;;;5082093;28;21080;-80
2023/11/20 11:04:47;;;;;;;0.70;0.70;;;11.10;99.90;;;;;;5082770;28;20527;-78
2023/11/20 11:07:16;;;;;;;0.63;0.63;;;11.00;99.90;;;;;;5083924;28;20520;-81
2023/11/20 11:09:45;;;;;;;1.03;0.60;;;10.90;99.90;;;;;;5082880;28;20460;-79
2023/11/20 11:12:13;;;;;;;1.77;1.50;;;10.90;99.90;;;;;;5075367;28;20436;-79
2023/11/20 11:14:40;;;;;;;0.80;0.80;;;10.80;99.90;;;;;;5084799;28;20843;-81
2023/11/20 11:17:14;;;;;;;0.90;0.90;;;10.80;99.90;;;;;;5085390;28;20542;-81
2023/11/20 11:19:46;;;;;;;1.00;0.60;;;10.80;99.90;;;;;;5085361;28;20448;-79
2023/11/20 11:22:21;;;;;;;7.87;2.00;;;10.80;99.90;;;;;;5084355;28;20444;-81
2023/11/20 11:24:50;;;;;;;0.50;0.37;;;10.80;99.90;;;;;;5084711;28;20531;-81
2023/11/20 11:27:20;;;;;;;0.97;0.60;;;10.80;99.90;;;;;;5084107;28;20511;-83
2023/11/20 11:29:53;;;;;;;1.13;0.87;;;10.90;99.90;;;;;;5086648;28;20524;-83
2023/11/20 11:32:56;;;;;;;0.50;0.50;;;11.00;99.90;;;;;;5077120;28;20429;-78
2023/11/20 11:35:42;;;;;;;0.50;0.40;;;11.00;99.90;;;;;;5066606;28;20444;-79
2023/11/20 11:38:21;;;;;;;0.50;0.40;;;11.00;99.90;;;;;;5084880;28;20859;-80
2023/11/20 11:41:02;;;;;;;0.50;0.40;;;11.00;99.90;;;;;;5084996;28;20444;-80
2023/11/20 11:43:35;;;;;;;0.70;0.70;;;11.10;99.90;;;;;;5084719;28;20578;-80
2023/11/20 11:46:03;;;;;;;4.13;0.70;;;11.30;99.90;;;;;;5084082;28;20464;-79
2023/11/20 11:48:35;;;;;;;0.60;0.50;;;11.50;99.90;;;;;;5084224;28;20460;-79
2023/11/20 11:51:03;;;;;;;0.50;0.40;;;11.70;99.90;;;;;;5084404;28;20515;-79
2023/11/20 11:53:29;;;;;;;1.33;0.93;;;11.90;99.90;;;;;;5085502;28;20540;-79
2023/11/20 11:56:02;;;;;;;0.80;0.60;;;12.00;99.90;;;;;;5086747;28;20433;-78
2023/11/20 11:58:33;;;;;;;0.60;0.50;;;12.00;99.90;;;;;;5086069;28;20476;-79
2023/11/20 12:01:19;;;;;;;0.50;0.40;;;12.00;99.90;;;;;;5085844;28;20432;-81
2023/11/20 12:03:48;;;;;;;0.80;0.70;;;12.00;99.90;;;;;;5087979;28;20559;-78
2023/11/20 12:06:16;;;;;;;1.07;0.90;;;11.90;99.90;;;;;;5086805;28;20433;-79
2023/11/20 12:08:44;;;;;;;0.50;0.33;;;11.80;99.90;;;;;;5086629;28;20825;-79
2023/11/20 12:11:11;;;;;;;10.80;1.33;;;11.80;99.90;;;;;;5086667;28;20799;-81
2023/11/20 12:14:08;;;;;;;1.00;0.90;;;11.70;99.90;;;;;;5085912;28;20444;-79
2023/11/20 12:16:39;;;;;;;0.60;0.60;;;11.80;99.90;;;;;;5079822;28;20931;-80
2023/11/20 12:19:07;;;;;;;0.50;0.40;;;11.80;99.90;;;;;;5083684;28;20526;-78
2023/11/20 12:21:34;;;;;;;8.63;1.80;;;11.70;99.90;;;;;;5083831;28;20462;-81
2023/11/20 12:24:01;;;;;;;0.50;0.40;;;11.60;99.90;;;;;;5083608;28;20472;-81
2023/11/20 12:26:28;;;;;;;0.60;0.60;;;11.40;99.90;;;;;;5082562;28;20509;-80
2023/11/20 12:28:56;;;;;;;1.03;0.83;;;11.40;99.90;;;;;;5081584;28;20453;-80
2023/11/20 12:31:24;;;;;;;0.50;0.40;;;11.30;99.90;;;;;;5083191;28;20467;-81
2023/11/20 12:33:50;;;;;;;1.67;1.57;;;11.30;99.90;;;;;;5081416;28;20448;-80
2023/11/20 12:36:21;;;;;;;4.73;0.80;;;11.50;99.90;;;;;;5082973;28;20433;-79
2023/11/20 12:38:49;;;;;;;0.50;0.40;;;11.60;99.90;;;;;;5081681;28;20521;-80
2023/11/20 12:41:19;;;;;;;0.50;0.40;;;11.80;99.90;;;;;;5082560;28;20433;-82
2023/11/20 12:43:47;;;;;;;1.57;0.90;;;11.90;99.90;;;;;;5085770;28;20511;-78
2023/11/20 12:46:17;;;;;;;0.50;0.40;;;12.00;99.90;;;;;;5086139;28;20444;-82
2023/11/20 12:48:44;;;;;;;1.33;0.60;;;12.10;99.90;;;;;;5086264;28;20453;-81
2023/11/20 12:51:11;;;;;;;1.53;1.43;;;12.20;99.90;;;;;;5087423;28;20440;-80